Time;durP1;ratioP1;P1;durP2;ratioP2;P2;SDS_P1;SDS_P2;PMS_P1;PMS_P2;Temp;Humidity;BMP_temperature;BMP_pressure;BME280_temperature;BME280_humidity;BME280_pressure;Samples;Min_cycle;Max_cycle;Signal;HPM_P1;HPM_P2
2021/11/17 02:25:48;;;;;;;28.98;15.45;;;;;;;13.67;54.70;101788.59;4239650;28;20072;-61
2021/11/17 02:27:56;;;;;;;;;;;;;;;13.63;54.58;101789.63;4220925;28;20058;-65
2021/11/17 02:30:30;;;;;;;32.00;16.30;;;;;;;13.62;54.73;101783.50;4238957;28;19916;-62
2021/11/17 02:32:50;;;;;;;30.25;15.95;;;;;;;13.52;54.55;101759.09;4239517;28;20358;-62
2021/11/17 02:35:26;;;;;;;29.95;16.02;;;;;;;13.60;54.99;101774.72;4239587;28;20195;-60
2021/11/17 02:37:38;;;;;;;29.75;16.08;;;;;;;13.59;54.66;101767.72;4228747;28;20043;-63
2021/11/17 02:39:42;;;;;;;33.50;17.08;;;;;;;13.58;54.80;101753.66;4239778;28;20044;-62
2021/11/17 02:42:30;;;;;;;30.13;16.52;;;;;;;13.40;54.63;101714.56;4239588;28;20071;-63
2021/11/17 02:45:02;;;;;;;31.40;16.58;;;;;;;13.52;54.92;101739.75;4154483;28;20049;-61
2021/11/17 02:47:23;;;;;;;28.45;15.55;;;;;;;13.55;54.64;101764.28;4214660;28;20056;-62
2021/11/17 02:49:37;;;;;;;31.67;16.58;;;;;;;13.55;54.72;101768.72;4239365;28;20052;-64
2021/11/17 02:52:04;;;;;;;34.08;16.50;;;;;;;13.54;54.92;101777.56;4239273;28;20267;-64
2021/11/17 02:54:33;;;;;;;29.52;16.35;;;;;;;13.54;54.98;101777.56;4222742;28;20044;-60
2021/11/17 02:56:35;;;;;;;31.40;16.90;;;;;;;13.52;54.93;101785.53;4237339;27;20047;-64
2021/11/17 02:59:14;;;;;;;28.90;16.02;;;;;;;13.51;54.60;101789.09;4241030;27;20047;-60
2021/11/17 03:01:35;;;;;;;29.90;16.73;;;;;;;13.50;54.88;101789.13;4239084;28;20077;-61
2021/11/17 03:04:02;;;;;;;32.03;16.35;;;;;;;13.49;55.23;101785.63;4239119;28;20333;-65
2021/11/17 03:06:23;;;;;;;32.25;16.95;;;;;;;13.48;54.94;101788.34;4238939;28;20351;-60
2021/11/17 03:08:37;;;;;;;32.47;17.08;;;;;;;13.32;55.14;101764.97;4239223;28;20044;-65
2021/11/17 03:10:57;;;;;;;32.28;16.92;;;;;;;13.47;55.19;101790.09;4238559;28;20064;-64
2021/11/17 03:13:24;;;;;;;30.30;16.13;;;;;;;13.45;55.19;101796.34;4238911;28;20238;-60
2021/11/17 03:15:42;;;;;;;30.92;16.20;;;;;;;13.44;55.37;101806.06;4239151;28;20044;-60
2021/11/17 03:18:09;;;;;;;30.58;16.70;;;;;;;13.45;55.20;101806.91;4238143;28;20377;-64
2021/11/17 03:20:11;;;;;;;30.77;16.23;;;;;;;13.42;54.88;101811.38;4239064;28;20043;-64
2021/11/17 03:22:19;;;;;;;28.33;16.25;;;;;;;13.42;55.14;101813.16;4239100;28;20039;-62
2021/11/17 03:24:21;;;;;;;29.95;17.08;;;;;;;13.42;55.35;101823.72;4238940;28;20266;-65
2021/11/17 03:26:54;;;;;;;31.00;17.40;;;;;;;13.39;55.23;101823.81;4238935;28;20059;-67
2021/11/17 03:29:34;;;;;;;29.55;16.38;;;;;;;13.40;55.01;101834.34;4230155;28;20043;-62
2021/11/17 03:31:36;;;;;;;29.05;15.65;;;;;;;13.39;55.15;101834.38;4237631;28;20040;-59
2021/11/17 03:33:57;;;;;;;31.58;16.77;;;;;;;13.36;55.35;101835.28;4238462;28;20055;-63
2021/11/17 03:36:18;;;;;;;30.13;15.40;;;;;;;13.37;55.14;101841.47;4238829;28;20092;-59
2021/11/17 03:39:04;;;;;;;31.13;16.73;;;;;;;13.35;55.44;101833.56;4238479;28;20043;-63
2021/11/17 03:41:44;;;;;;;29.20;16.58;;;;;;;13.35;55.50;101825.63;4238732;28;20343;-59
2021/11/17 03:43:46;;;;;;;31.13;15.63;;;;;;;13.35;55.38;101838.00;4235631;28;20063;-64
2021/11/17 03:45:48;;;;;;;28.10;15.65;;;;;;;13.34;55.35;101834.50;4238922;28;20377;-63
2021/11/17 03:47:59;;;;;;;32.13;16.58;;;;;;;13.34;55.51;101844.19;4238194;28;20327;-64
2021/11/17 03:50:47;;;;;;;29.02;15.85;;;;;;;13.32;55.55;101851.28;4220667;28;20077;-63
2021/11/17 03:53:24;;;;;;;29.15;16.45;;;;;;;13.32;55.49;101854.81;4193523;28;20059;-62
2021/11/17 03:55:45;;;;;;;30.23;16.63;;;;;;;13.32;55.45;101849.53;4153434;28;20050;-63
2021/11/17 03:57:54;;;;;;;30.23;16.80;;;;;;;13.30;55.37;101856.63;4242389;27;20044;-62
2021/11/17 04:00:22;;;;;;;28.42;16.00;;;;;;;13.31;55.54;101857.50;4238348;28;20084;-59
2021/11/17 04:02:36;;;;;;;27.80;16.17;;;;;;;13.30;55.38;101853.13;4238369;28;20077;-62
2021/11/17 04:04:41;;;;;;;31.77;16.40;;;;;;;13.29;55.53;101849.59;4236602;28;20207;-60
2021/11/17 04:07:07;;;;;;;28.63;15.73;;;;;;;13.24;55.46;101846.22;4238289;28;20354;-64
2021/11/17 04:09:15;;;;;;;26.50;15.80;;;;;;;13.29;55.61;101861.94;4238155;28;20365;-62
2021/11/17 04:11:32;;;;;;;29.50;15.93;;;;;;;13.27;55.33;101860.22;4238271;28;20063;-59
2021/11/17 04:13:46;;;;;;;26.20;14.80;;;;;;;13.27;55.63;101864.66;4238062;28;20062;-61
2021/11/17 04:15:51;;;;;;;30.70;16.60;;;;;;;13.27;55.63;101864.66;4238060;28;20390;-63
2021/11/17 04:18:15;;;;;;;28.02;15.65;;;;;;;13.27;55.65;101869.94;4237957;28;20092;-62
2021/11/17 04:20:30;;;;;;;26.75;15.30;;;;;;;13.25;55.48;101875.22;4237983;28;20043;-59
2021/11/17 04:22:44;;;;;;;26.52;15.40;;;;;;;13.24;55.72;101876.16;4238375;28;20107;-64
2021/11/17 04:25:02;;;;;;;25.88;15.18;;;;;;;13.24;55.58;101884.09;4237894;28;20047;-61
2021/11/17 04:27:13;;;;;;;26.95;15.05;;;;;;;13.24;55.85;101888.50;4221152;28;20051;-61
2021/11/17 04:29:26;;;;;;;26.48;15.18;;;;;;;13.23;55.71;101885.00;4231444;28;20350;-63
2021/11/17 04:31:52;;;;;;;29.55;15.13;;;;;;;13.22;55.66;101880.63;4238114;28;20050;-61
2021/11/17 04:34:08;;;;;;;27.23;15.07;;;;;;;13.22;55.89;101890.31;4237659;28;20324;-64
2021/11/17 04:36:32;;;;;;;27.70;15.15;;;;;;;13.21;55.88;101884.16;4219285;28;20352;-60
2021/11/17 04:38:34;;;;;;;25.67;14.75;;;;;;;13.20;55.72;101890.34;4236676;28;20051;-64
2021/11/17 04:40:45;;;;;;;27.25;14.32;;;;;;;13.20;55.82;101887.72;4238173;28;20381;-63
2021/11/17 04:42:50;;;;;;;26.20;15.50;;;;;;;13.20;55.93;101894.78;4237942;28;20103;-63
2021/11/17 04:45:41;;;;;;;27.50;15.75;;;;;;;13.21;55.66;101891.25;4237990;28;20047;-64
2021/11/17 04:47:49;;;;;;;28.52;15.35;;;;;;;13.18;56.12;101889.53;4207543;28;20040;-63
2021/11/17 04:50:06;;;;;;;26.73;14.75;;;;;;;13.18;55.82;101889.53;4228824;28;20378;-64
2021/11/17 04:52:50;;;;;;;26.70;15.13;;;;;;;13.18;55.90;101896.59;4237924;28;20044;-62
2021/11/17 04:54:58;;;;;;;26.08;15.27;;;;;;;13.16;55.93;101891.38;4237574;28;20098;-61
2021/11/17 04:57:12;;;;;;;23.85;14.43;;;;;;;13.15;56.04;101889.63;4241282;28;20039;-64
2021/11/17 04:59:53;;;;;;;27.77;14.93;;;;;;;13.15;55.73;101886.09;4253134;28;20045;-59
2021/11/17 05:02:24;;;;;;;24.48;14.93;;;;;;;13.15;56.02;101889.63;4209816;28;20496;-59
2021/11/17 05:04:42;;;;;;;26.55;15.02;;;;;;;13.15;55.85;101879.06;4233353;28;20050;-62
2021/11/17 05:07:08;;;;;;;26.02;14.70;;;;;;;12.99;56.21;101861.88;4219977;28;20075;-64
2021/11/17 05:09:22;;;;;;;25.33;15.00;;;;;;;13.14;56.13;101884.41;4237959;28;20081;-61
2021/11/17 05:11:46;;;;;;;26.65;15.15;;;;;;;13.13;56.11;101887.94;4237328;28;20052;-61
2021/11/17 05:13:52;;;;;;;24.35;14.95;;;;;;;13.13;56.06;101887.94;4237955;28;20047;-63
2021/11/17 05:16:13;;;;;;;24.02;14.45;;;;;;;13.13;56.19;101886.16;4238820;28;20036;-64
2021/11/17 05:18:33;;;;;;;24.17;15.27;;;;;;;13.09;55.82;101885.38;4240967;28;20354;-61
2021/11/17 05:20:44;;;;;;;24.73;14.73;;;;;;;13.13;56.19;101883.50;4241007;28;20279;-64
2021/11/17 05:23:21;;;;;;;23.20;13.43;;;;;;;13.12;56.26;101884.41;4241200;28;20214;-65
2021/11/17 05:25:42;;;;;;;25.40;14.88;;;;;;;13.12;56.25;101887.06;4240735;28;20035;-60
2021/11/17 05:27:59;;;;;;;25.08;14.13;;;;;;;13.08;56.32;101880.13;4230913;28;20052;-62
2021/11/17 05:30:16;;;;;;;23.48;14.30;;;;;;;13.10;56.25;101887.09;4240900;28;20064;-59
2021/11/17 05:32:20;;;;;;;24.15;14.07;;;;;;;13.08;56.39;101875.72;4237016;28;20043;-63
2021/11/17 05:34:41;;;;;;;24.98;13.70;;;;;;;13.08;56.20;101878.34;4240829;28;20055;-63
2021/11/17 05:36:52;;;;;;;24.40;14.10;;;;;;;13.08;56.01;101872.22;4240065;28;20101;-61
2021/11/17 05:39:16;;;;;;;24.23;13.35;;;;;;;13.08;56.32;101872.22;4240905;28;20240;-64
2021/11/17 05:41:33;;;;;;;24.13;14.52;;;;;;;13.07;56.21;101868.72;4240826;28;20043;-61
2021/11/17 05:43:53;;;;;;;25.17;14.10;;;;;;;13.07;56.22;101871.34;4222718;28;20290;-63
2021/11/17 05:46:19;;;;;;;24.20;14.10;;;;;;;13.08;56.17;101869.56;4240386;28;20047;-63
2021/11/17 05:48:36;;;;;;;23.75;14.63;;;;;;;13.06;56.54;101874.91;4229395;28;20039;-63
2021/11/17 05:50:38;;;;;;;24.08;14.05;;;;;;;13.06;56.34;101868.75;4240822;28;20040;-64
2021/11/17 05:53:11;;;;;;;23.48;13.82;;;;;;;13.07;56.51;101865.19;4240573;28;20251;-63
2021/11/17 05:55:39;;;;;;;23.38;13.13;;;;;;;13.05;56.44;101862.59;4223611;28;20044;-61
2021/11/17 05:57:53;;;;;;;24.27;14.18;;;;;;;12.98;56.65;101847.84;4238071;28;20120;-65
2021/11/17 06:00:13;;;;;;;23.25;14.57;;;;;;;13.05;56.56;101865.25;4240361;28;20044;-61
2021/11/17 06:02:41;;;;;;;24.40;13.82;;;;;;;13.02;56.61;101859.19;4239662;28;20043;-60
2021/11/17 06:04:43;;;;;;;21.65;12.68;;;;;;;13.04;56.19;101858.22;4240152;28;20044;-59
2021/11/17 06:06:45;;;;;;;22.90;13.20;;;;;;;13.04;56.69;101852.94;4240098;28;20409;-59
2021/11/17 06:08:47;;;;;;;21.67;13.35;;;;;;;13.04;56.60;101858.22;4240357;28;20362;-60
2021/11/17 06:10:54;;;;;;;20.30;12.35;;;;;;;13.03;56.63;101860.91;4240339;28;20055;-59
2021/11/17 06:12:58;;;;;;;21.48;12.63;;;;;;;13.03;56.50;101861.78;4240105;28;20044;-63
2021/11/17 06:15:02;;;;;;;20.63;13.07;;;;;;;12.99;56.31;101846.03;4240142;28;20043;-63
2021/11/17 06:17:13;;;;;;;20.70;12.88;;;;;;;13.02;56.67;101844.19;4240247;28;20051;-62
2021/11/17 06:19:19;;;;;;;21.80;12.45;;;;;;;13.02;56.44;101856.53;4239889;28;20085;-62
2021/11/17 06:21:22;;;;;;;20.83;12.57;;;;;;;13.02;56.75;101857.38;4240162;28;20109;-63
2021/11/17 06:23:33;;;;;;;21.30;11.90;;;;;;;13.01;56.77;101852.16;4239830;28;20047;-62
2021/11/17 06:25:38;;;;;;;19.13;11.93;;;;;;;13.03;56.63;101860.91;4240062;28;20040;-63
2021/11/17 06:27:47;;;;;;;21.02;12.55;;;;;;;13.01;56.66;101852.16;4239553;28;20061;-61
2021/11/17 06:29:50;;;;;;;21.35;12.40;;;;;;;12.99;56.61;101851.31;4239847;28;20039;-60
2021/11/17 06:31:55;;;;;;;20.15;11.93;;;;;;;13.00;56.74;101853.06;4240183;28;20232;-62
2021/11/17 06:33:57;;;;;;;20.25;12.60;;;;;;;13.03;56.56;101859.13;4239553;28;20052;-59
2021/11/17 06:35:59;;;;;;;;;;;;;;;13.03;56.85;101858.28;4240289;28;20336;-59
2021/11/17 06:38:05;;;;;;;19.27;11.88;;;;;;;13.02;56.72;101859.19;4239810;28;20104;-61
2021/11/17 06:40:13;;;;;;;20.08;12.23;;;;;;;12.99;56.73;101859.25;4239733;28;20085;-65
2021/11/17 06:42:31;;;;;;;19.17;11.77;;;;;;;12.99;56.97;101865.41;4221569;28;20048;-62
2021/11/17 06:44:33;;;;;;;20.02;11.10;;;;;;;12.92;56.79;101862.06;4237654;28;20059;-61
2021/11/17 06:46:35;;;;;;;;;;;;;;;13.00;56.89;101880.34;4240408;28;20332;-62
2021/11/17 06:48:37;;;;;;;20.15;11.55;;;;;;;12.99;56.88;101875.09;4239645;28;19916;-61
2021/11/17 06:50:43;;;;;;;20.27;11.25;;;;;;;13.00;56.51;101884.75;4239422;28;20065;-61
2021/11/17 06:52:46;;;;;;;20.08;11.90;;;;;;;12.94;57.00;101877.84;4239607;28;20051;-61
2021/11/17 06:54:49;;;;;;;20.20;11.90;;;;;;;12.95;56.74;101879.59;4239409;28;20051;-63
2021/11/17 06:56:51;;;;;;;18.58;11.68;;;;;;;12.99;56.65;101890.94;4242767;27;20046;-61
2021/11/17 06:58:54;;;;;;;18.42;11.48;;;;;;;13.00;56.71;101903.25;4248774;27;20487;-59
2021/11/17 07:00:56;;;;;;;20.52;12.20;;;;;;;13.00;56.67;101911.16;4239678;28;20051;-61
2021/11/17 07:02:59;;;;;;;18.80;11.10;;;;;;;13.00;56.77;101908.53;4239660;28;20059;-63
2021/11/17 07:05:02;;;;;;;18.63;11.55;;;;;;;12.99;57.15;101905.03;4221072;28;20097;-59
2021/11/17 07:07:06;;;;;;;19.13;10.85;;;;;;;12.81;56.72;101887.91;4239277;28;20043;-62
2021/11/17 07:09:09;;;;;;;19.10;11.10;;;;;;;12.92;56.84;101914.00;4239284;28;20048;-60
2021/11/17 07:11:11;;;;;;;18.15;11.07;;;;;;;12.93;57.13;101913.97;4239224;28;20046;-64
2021/11/17 07:13:13;;;;;;;19.73;11.50;;;;;;;12.98;57.18;101932.34;4239245;28;20047;-63
2021/11/17 07:15:16;;;;;;;19.38;12.07;;;;;;;12.98;57.10;101936.72;4239015;28;20209;-60
2021/11/17 07:17:18;;;;;;;19.67;11.18;;;;;;;12.97;57.02;101937.66;4239116;28;20040;-61
2021/11/17 07:19:24;;;;;;;18.52;10.85;;;;;;;12.96;56.97;101941.22;4238819;28;20089;-61
2021/11/17 07:21:26;;;;;;;17.98;10.50;;;;;;;12.96;57.12;101943.84;4228349;28;20089;-59
2021/11/17 07:23:32;;;;;;;19.00;11.63;;;;;;;12.97;56.97;101945.59;4239095;28;20051;-60
2021/11/17 07:25:35;;;;;;;19.73;11.23;;;;;;;12.89;56.98;101932.56;4220839;28;20044;-63
2021/11/17 07:27:37;;;;;;;19.45;10.88;;;;;;;12.96;57.09;101952.63;4238574;28;20093;-66
2021/11/17 07:29:39;;;;;;;;;;;;;;;12.95;57.11;101953.53;4239494;28;20122;-64
2021/11/17 07:31:42;;;;;;;18.13;10.15;;;;;;;12.90;57.23;101958.06;4239198;28;19975;-66
2021/11/17 07:33:44;;;;;;;;;;;;;;;12.95;57.32;101969.38;4239183;28;20059;-64
2021/11/17 07:35:49;;;;;;;18.10;10.50;;;;;;;12.89;57.13;101970.41;4238774;28;19916;-62
2021/11/17 07:37:53;;;;;;;18.20;11.23;;;;;;;12.94;56.93;101976.44;4238517;28;20043;-66
2021/11/17 07:39:55;;;;;;;18.00;10.55;;;;;;;12.94;56.86;101975.56;4238356;28;20039;-65
2021/11/17 07:41:57;;;;;;;;;;;;;;;12.93;57.15;101977.34;4239240;28;20105;-60
2021/11/17 07:43:59;;;;;;;16.35;10.25;;;;;;;12.85;57.40;101963.47;4238823;28;20332;-60
2021/11/17 07:46:02;;;;;;;;;;;;;;;12.91;57.38;101975.66;4239146;28;20084;-63
2021/11/17 07:48:05;;;;;;;;;;;;;;;12.91;57.10;101984.41;4239211;28;20298;-60
2021/11/17 07:50:08;;;;;;;17.00;10.40;;;;;;;12.90;57.34;101989.75;4238544;28;19961;-63
2021/11/17 07:52:11;;;;;;;16.70;10.43;;;;;;;12.91;57.18;101986.22;4238658;28;20043;-63
2021/11/17 07:54:13;;;;;;;;;;;;;;;12.90;57.31;101980.06;4238189;28;20092;-64
2021/11/17 07:56:15;;;;;;;;;;;;;;;12.90;57.43;101977.44;4238855;28;20104;-60
2021/11/17 07:58:19;;;;;;;17.20;9.95;;;;;;;12.90;57.52;101980.06;4240970;27;19919;-62
2021/11/17 08:00:25;;;;;;;16.05;9.90;;;;;;;12.90;57.23;101984.47;4237806;28;20044;-61
2021/11/17 08:02:28;;;;;;;16.58;9.82;;;;;;;12.74;57.32;101952.31;4238434;28;20039;-63
2021/11/17 08:04:34;;;;;;;16.65;9.38;;;;;;;12.89;57.33;101974.81;4238244;28;20051;-60
2021/11/17 08:06:36;;;;;;;17.90;10.35;;;;;;;12.84;57.68;101964.34;4237936;28;20085;-61
2021/11/17 08:08:39;;;;;;;18.38;10.77;;;;;;;12.87;57.31;101964.28;4237620;28;20097;-59
2021/11/17 08:10:42;;;;;;;19.55;10.70;;;;;;;12.86;57.65;101970.47;4238069;28;20051;-63
2021/11/17 08:12:45;;;;;;;21.98;11.88;;;;;;;12.95;57.95;101982.56;4238123;28;20048;-58
2021/11/17 08:14:48;;;;;;;35.72;12.40;;;;;;;12.90;57.92;101974.78;4238117;28;20051;-60
2021/11/17 08:16:50;;;;;;;28.00;13.23;;;;;;;12.98;57.85;101987.78;4238126;28;20240;-62
2021/11/17 08:18:52;;;;;;;18.48;11.02;;;;;;;12.99;58.18;101978.97;4238250;28;20235;-60
2021/11/17 08:20:54;;;;;;;26.77;12.05;;;;;;;12.99;57.91;101992.16;4237976;28;20051;-66
2021/11/17 08:22:58;;;;;;;25.65;12.30;;;;;;;13.01;58.48;101989.47;4238144;28;20047;-59
2021/11/17 08:25:00;;;;;;;32.10;13.52;;;;;;;13.04;58.59;101992.06;4237894;28;20067;-63
2021/11/17 08:27:07;;;;;;;32.00;14.25;;;;;;;13.08;58.96;101991.91;4237918;28;20048;-63
2021/11/17 08:29:09;;;;;;;27.00;13.43;;;;;;;13.10;58.81;101995.41;4238085;28;20087;-61
2021/11/17 08:31:15;;;;;;;28.13;13.25;;;;;;;13.11;58.74;101993.66;4237874;28;20067;-60
2021/11/17 08:33:18;;;;;;;29.75;14.80;;;;;;;13.13;59.08;101991.81;4237721;28;20338;-61
2021/11/17 08:35:23;;;;;;;34.05;15.10;;;;;;;13.13;59.65;101988.31;4237953;28;20043;-67
2021/11/17 08:37:25;;;;;;;34.13;15.27;;;;;;;13.09;59.69;101985.72;4237769;28;20043;-61
2021/11/17 08:39:27;;;;;;;;;;;;;;;13.18;60.15;102000.47;4238369;28;20043;-66
2021/11/17 08:41:30;;;;;;;27.40;14.60;;;;;;;13.20;59.77;102000.47;4237960;28;19915;-63
2021/11/17 08:43:33;;;;;;;32.20;14.55;;;;;;;13.01;59.40;101977.13;4236877;28;20085;-63
2021/11/17 08:45:38;;;;;;;30.48;14.40;;;;;;;13.22;59.60;102010.06;4237918;28;20039;-61
2021/11/17 08:47:43;;;;;;;27.85;14.55;;;;;;;13.22;59.84;102002.16;4237865;28;20062;-65
2021/11/17 08:49:45;;;;;;;30.98;14.88;;;;;;;13.25;59.47;102007.34;4239069;28;20058;-66
2021/11/17 08:51:48;;;;;;;30.35;15.40;;;;;;;13.23;59.99;102003.88;4241362;28;20039;-65
2021/11/17 08:53:51;;;;;;;31.27;15.60;;;;;;;13.26;60.19;102011.72;4239823;28;20123;-61
2021/11/17 08:55:53;;;;;;;;;;;;;;;13.27;60.44;102010.81;4240783;28;20243;-66
2021/11/17 08:57:57;;;;;;;32.58;16.08;;;;;;;13.24;60.59;102005.63;4241332;27;19960;-60
2021/11/17 09:00:02;;;;;;;32.40;16.88;;;;;;;13.26;60.73;102010.84;4238865;28;20047;-59
2021/11/17 09:02:05;;;;;;;27.95;14.07;;;;;;;13.32;60.66;102020.38;4240771;28;20415;-60
2021/11/17 09:04:07;;;;;;;33.28;14.25;;;;;;;13.22;60.19;102002.16;4240733;28;20047;-60
2021/11/17 09:06:11;;;;;;;;;;;;;;;13.33;60.68;102009.78;4240993;28;20081;-59
2021/11/17 09:08:18;;;;;;;28.92;15.02;;;;;;;13.26;60.82;102005.56;4240919;28;19971;-64
2021/11/17 09:10:30;;;;;;;27.98;14.52;;;;;;;13.35;60.50;102015.88;4222305;28;20363;-60
2021/11/17 09:12:42;;;;;;;27.42;15.18;;;;;;;13.32;60.32;102018.63;4219036;28;20141;-62
2021/11/17 09:14:44;;;;;;;28.52;14.30;;;;;;;13.31;60.60;102013.38;4221345;28;20110;-59
2021/11/17 09:16:47;;;;;;;27.40;14.55;;;;;;;13.33;60.65;102017.72;4241467;28;20046;-63
2021/11/17 09:18:53;;;;;;;28.15;15.07;;;;;;;13.33;60.44;102009.78;4240911;28;20040;-61
2021/11/17 09:20:57;;;;;;;31.17;16.33;;;;;;;13.39;60.53;102019.34;4241105;28;20044;-65
2021/11/17 09:23:01;;;;;;;28.77;15.02;;;;;;;13.36;60.37;102017.63;4240826;28;20285;-65
2021/11/17 09:25:05;;;;;;;30.33;15.65;;;;;;;13.42;60.52;102028.06;4241060;28;20085;-59
2021/11/17 09:27:08;;;;;;;27.58;14.88;;;;;;;13.44;60.45;102029.78;4241250;28;20043;-63
2021/11/17 09:29:10;;;;;;;27.88;14.40;;;;;;;13.47;60.65;102037.66;4240758;28;20069;-62
2021/11/17 09:31:13;;;;;;;28.42;14.43;;;;;;;13.49;60.69;102036.72;4240770;28;20047;-61
2021/11/17 09:33:17;;;;;;;32.75;15.50;;;;;;;13.47;60.92;102035.88;4240571;28;20055;-60
2021/11/17 09:35:20;;;;;;;29.50;16.40;;;;;;;13.47;60.96;102027.09;4239549;28;20039;-65
2021/11/17 09:37:24;;;;;;;24.55;14.35;;;;;;;13.53;60.85;102043.63;4238762;27;20051;-66
2021/11/17 09:39:26;;;;;;;26.77;14.98;;;;;;;13.47;60.98;102025.28;4240168;28;20335;-62
2021/11/17 09:41:36;;;;;;;28.25;14.63;;;;;;;13.58;60.95;102038.22;4240395;28;20050;-59
2021/11/17 09:43:46;;;;;;;25.92;14.32;;;;;;;13.44;60.97;102019.22;4219360;28;20050;-59
2021/11/17 09:45:50;;;;;;;25.02;14.13;;;;;;;13.56;60.70;102037.41;4236902;28;20235;-64
2021/11/17 09:47:54;;;;;;;25.35;13.88;;;;;;;13.56;60.64;102037.41;4239968;28;20050;-64
2021/11/17 09:50:07;;;;;;;26.08;14.18;;;;;;;13.57;60.47;102040.00;4240410;28;20035;-65
2021/11/17 09:52:24;;;;;;;24.38;14.52;;;;;;;13.63;60.82;102052.19;4240719;28;20089;-61
2021/11/17 09:54:44;;;;;;;26.40;14.52;;;;;;;13.64;60.77;102056.56;4240382;28;20088;-61
2021/11/17 09:56:50;;;;;;;26.00;14.38;;;;;;;13.50;60.57;102029.63;4233765;27;20043;-65
2021/11/17 09:59:01;;;;;;;26.13;14.43;;;;;;;13.64;60.52;102059.22;4257657;27;20039;-63
2021/11/17 10:01:19;;;;;;;27.48;15.02;;;;;;;13.68;60.67;102063.53;4238958;28;20254;-66
2021/11/17 10:03:47;;;;;;;23.13;13.68;;;;;;;13.68;60.58;102060.00;4240845;28;20041;-61
2021/11/17 10:08:21;;;;;;;27.95;14.43;;;;;;;13.71;60.68;102066.06;4240166;28;20050;-66
2021/11/17 10:13:11;;;;;;;22.45;14.07;;;;;;;13.66;60.58;102057.41;4177108;28;20048;-66
2021/11/17 10:15:30;;;;;;;27.45;14.60;;;;;;;13.73;60.49;102069.53;4187465;28;20100;-61
2021/11/17 10:17:46;;;;;;;25.90;13.82;;;;;;;13.76;60.41;102071.25;4181988;28;20045;-66
2021/11/17 10:20:21;;;;;;;26.27;13.98;;;;;;;13.69;60.69;102057.34;4202806;28;20055;-65
2021/11/17 10:22:31;;;;;;;23.67;14.07;;;;;;;13.72;60.70;102065.16;4176710;28;20038;-61
2021/11/17 10:25:18;;;;;;;24.98;13.70;;;;;;;13.76;60.61;102067.75;4169325;28;20108;-65
2021/11/17 10:27:29;;;;;;;26.38;14.00;;;;;;;13.79;60.59;102070.28;4203084;28;20055;-67
2021/11/17 10:29:46;;;;;;;25.08;13.50;;;;;;;13.80;60.79;102072.88;4171411;28;20089;-61
2021/11/17 10:32:14;;;;;;;28.63;14.65;;;;;;;13.81;60.14;102068.47;4172424;28;20041;-65
2021/11/17 10:34:33;;;;;;;24.65;13.35;;;;;;;13.80;60.26;102070.22;4174029;28;20128;-66
2021/11/17 10:37:07;;;;;;;25.83;14.57;;;;;;;13.82;60.19;102065.78;4189231;28;20045;-60
2021/11/17 10:39:46;;;;;;;21.95;13.15;;;;;;;13.83;60.52;102070.16;4187082;28;20060;-64
2021/11/17 10:42:10;;;;;;;24.27;13.55;;;;;;;13.78;60.33;102058.84;4188254;28;20121;-63
2021/11/17 10:44:28;;;;;;;25.77;13.80;;;;;;;13.86;60.28;102074.50;4187891;28;20321;-65
2021/11/17 10:46:45;;;;;;;23.25;12.85;;;;;;;13.84;60.55;102073.66;4155582;28;20081;-64
2021/11/17 10:49:14;;;;;;;23.48;14.05;;;;;;;13.86;60.33;102077.13;4185675;28;20049;-60
2021/11/17 10:51:21;;;;;;;23.73;13.02;;;;;;;13.88;60.42;102078.81;4187752;28;20037;-62
2021/11/17 10:53:31;;;;;;;27.65;13.52;;;;;;;13.90;60.64;102070.84;4182949;28;20288;-66
2021/11/17 10:55:53;;;;;;;24.27;13.80;;;;;;;13.83;61.16;102056.94;4171459;28;20069;-61
2021/11/17 10:58:02;;;;;;;26.67;13.63;;;;;;;13.90;60.99;102068.19;4188197;28;20053;-65
2021/11/17 11:00:12;;;;;;;22.20;13.73;;;;;;;13.93;60.88;102062.84;4188278;28;20053;-63
2021/11/17 11:02:18;;;;;;;21.92;12.93;;;;;;;13.91;60.79;102062.00;4188339;28;20037;-65
2021/11/17 11:04:30;;;;;;;23.23;13.68;;;;;;;13.92;60.97;102060.25;4188257;28;20041;-66
2021/11/17 11:06:38;;;;;;;23.13;12.60;;;;;;;13.99;61.08;102067.09;4188295;28;20045;-63
2021/11/17 11:08:50;;;;;;;22.15;13.10;;;;;;;13.91;60.86;102046.13;4188394;28;20032;-63
2021/11/17 11:10:58;;;;;;;22.25;12.88;;;;;;;14.00;60.65;102061.75;4188266;28;20337;-62
2021/11/17 11:13:06;;;;;;;24.90;12.82;;;;;;;13.92;60.53;102047.88;4185497;28;20033;-63
2021/11/17 11:15:18;;;;;;;20.33;12.52;;;;;;;14.05;61.08;102070.41;4188386;28;20215;-66
2021/11/17 11:17:26;;;;;;;;;;;;;;;14.05;60.92;102067.78;4188533;28;20438;-62
2021/11/17 11:19:30;;;;;;;20.48;12.52;;;;;;;14.03;60.91;102052.84;4187439;28;19925;-66
2021/11/17 11:21:40;;;;;;;22.25;12.10;;;;;;;14.05;60.74;102056.34;4187868;28;20317;-66
2021/11/17 11:24:13;;;;;;;21.00;12.40;;;;;;;14.11;60.51;102055.28;4185145;28;20045;-58
2021/11/17 11:26:18;;;;;;;20.17;12.20;;;;;;;14.10;60.63;102054.41;4184929;28;20171;-63
2021/11/17 11:28:22;;;;;;;21.05;11.75;;;;;;;14.11;60.70;102045.56;4184282;28;20090;-61
2021/11/17 11:30:38;;;;;;;18.67;11.90;;;;;;;14.01;60.74;102026.47;4185604;28;20103;-65
2021/11/17 11:32:41;;;;;;;19.25;11.07;;;;;;;14.14;60.70;102040.19;4186804;28;20066;-66
2021/11/17 11:34:59;;;;;;;20.48;11.00;;;;;;;14.17;60.45;102039.25;4187640;28;20164;-66
2021/11/17 11:37:04;;;;;;;20.17;11.63;;;;;;;14.15;60.55;102046.34;4185323;28;20045;-63
2021/11/17 11:39:06;;;;;;;21.02;11.73;;;;;;;14.18;60.64;102051.53;4169908;28;20055;-65
2021/11/17 11:41:08;;;;;;;;;;;;;;;14.18;60.58;102049.78;4187560;28;20044;-61
2021/11/17 11:43:16;;;;;;;18.13;10.65;;;;;;;14.19;60.49;102048.88;4187029;28;19917;-65
2021/11/17 11:45:30;;;;;;;17.98;10.63;;;;;;;14.21;60.50;102049.66;4185749;28;20079;-60
2021/11/17 11:47:43;;;;;;;17.95;11.20;;;;;;;14.20;60.63;102039.13;4187601;28;20041;-59
2021/11/17 11:49:58;;;;;;;19.42;10.63;;;;;;;14.22;60.40;102050.56;4186168;28;20068;-68
2021/11/17 11:52:28;;;;;;;17.08;10.23;;;;;;;14.23;60.42;102049.66;4187037;28;20037;-64
2021/11/17 11:54:55;;;;;;;17.02;10.23;;;;;;;14.24;60.13;102053.16;4186309;28;20053;-67
2021/11/17 11:57:00;;;;;;;19.25;11.15;;;;;;;14.26;60.50;102048.69;4186280;28;20048;-59
2021/11/17 11:59:07;;;;;;;;;;;;;;;14.27;60.16;102045.97;4194962;28;20383;-64
2021/11/17 12:01:22;;;;;;;18.17;10.75;;;;;;;14.22;60.07;102032.03;4184724;28;19925;-63
2021/11/17 12:03:27;;;;;;;16.95;9.50;;;;;;;14.16;60.40;102021.63;4186898;28;20041;-65
2021/11/17 12:05:35;;;;;;;17.25;10.10;;;;;;;14.30;60.58;102039.72;4170062;28;20114;-64
2021/11/17 12:07:45;;;;;;;19.38;9.93;;;;;;;14.31;60.58;102037.03;4187599;28;20067;-62
2021/11/17 12:10:11;;;;;;;18.95;9.50;;;;;;;14.29;60.56;102036.22;4186793;28;20351;-63
2021/11/17 12:12:21;;;;;;;17.60;10.43;;;;;;;14.09;60.38;101997.13;4180760;28;20355;-61
2021/11/17 12:14:31;;;;;;;15.48;9.25;;;;;;;14.30;60.26;102026.50;4184655;28;20076;-63
2021/11/17 12:16:41;;;;;;;20.15;10.45;;;;;;;14.32;60.44;102027.31;4181980;28;20053;-64
2021/11/17 12:18:57;;;;;;;17.45;9.45;;;;;;;14.36;60.01;102034.25;4180215;28;20053;-65
2021/11/17 12:20:59;;;;;;;16.10;9.50;;;;;;;14.37;60.00;102036.88;4183711;28;20062;-63
2021/11/17 12:23:21;;;;;;;14.88;8.45;;;;;;;14.38;60.41;102043.03;4186891;28;20049;-67
2021/11/17 12:25:32;;;;;;;14.95;8.80;;;;;;;14.38;59.96;102049.16;4186755;28;20051;-64
2021/11/17 12:27:35;;;;;;;14.93;8.48;;;;;;;14.40;60.26;102050.91;4183430;28;20446;-64
2021/11/17 12:30:00;;;;;;;13.88;8.60;;;;;;;14.41;59.84;102047.34;4187585;28;20309;-67
2021/11/17 12:32:47;;;;;;;14.95;8.77;;;;;;;14.34;59.90;102036.94;4177564;28;20057;-65
2021/11/17 12:35:01;;;;;;;15.70;9.13;;;;;;;14.16;59.89;102003.13;4157561;28;20048;-65